createdAt,value
2023-03-22T00:01:32.482Z,100169.72
2023-03-22T00:04:01.538Z,100162.22
2023-03-22T00:06:31.449Z,100158.56
2023-03-22T00:08:59.870Z,100159.34
2023-03-22T00:11:27.998Z,100156.88
2023-03-22T00:13:56.428Z,100146.38
2023-03-22T00:16:24.839Z,100150.00
2023-03-22T00:18:53.299Z,100140.63
2023-03-22T00:21:22.122Z,100131.09
2023-03-22T00:23:52.279Z,100122.66
2023-03-22T00:26:20.356Z,100121.72
2023-03-22T00:28:48.666Z,100117.25
2023-03-22T00:31:17.476Z,100107.81
2023-03-22T00:33:45.921Z,100107.66
2023-03-22T00:36:14.795Z,100107.78
2023-03-22T00:38:44.387Z,100100.69
2023-03-22T00:41:16.964Z,100093.91
2023-03-22T00:43:46.545Z,100087.72
2023-03-22T00:46:15.948Z,100086.72
2023-03-22T00:48:44.620Z,100086.72
2023-03-22T00:51:14.189Z,100080.00
2023-03-22T00:53:43.722Z,100082.28
2023-03-22T00:56:15.788Z,100080.69
2023-03-22T00:58:56.523Z,100070.41
2023-03-22T01:01:24.691Z,100067.09
2023-03-22T01:03:52.664Z,100064.38
2023-03-22T01:06:21.502Z,100068.88
2023-03-22T01:08:50.866Z,100074.16
2023-03-22T01:11:20.397Z,100070.19
2023-03-22T01:13:49.005Z,100059.97
2023-03-22T01:16:18.201Z,100065.16
2023-03-22T01:18:46.424Z,100058.97
2023-03-22T01:21:14.770Z,100045.34
2023-03-22T01:23:42.886Z,100048.09
2023-03-22T01:26:11.170Z,100033.38
2023-03-22T01:28:41.165Z,100034.25
2023-03-22T01:31:09.303Z,100031.69
2023-03-22T01:33:37.778Z,100037.78
2023-03-22T01:36:06.580Z,100034.22
2023-03-22T01:38:35.783Z,100025.44
2023-03-22T01:41:03.789Z,100034.81
2023-03-22T01:43:35.363Z,100029.09
2023-03-22T01:46:05.152Z,100026.53
2023-03-22T01:48:34.503Z,100031.66
2023-03-22T01:51:07.263Z,100026.44
2023-03-22T01:53:44.304Z,100023.97
2023-03-22T01:56:13.331Z,100017.28
2023-03-22T01:58:42.684Z,100019.03
2023-03-22T02:01:13.673Z,100013.97
2023-03-22T02:03:52.516Z,100013.72
2023-03-22T02:06:21.661Z,100016.41
2023-03-22T02:08:58.069Z,100012.28
2023-03-22T02:11:32.206Z,100004.94
2023-03-22T02:14:16.640Z,100006.94
2023-03-22T02:17:10.411Z,100011.09
2023-03-22T02:20:20.883Z,100011.47
2023-03-22T02:23:01.042Z,100012.59
2023-03-22T02:25:45.135Z,100008.97
2023-03-22T02:28:19.159Z,100021.91
2023-03-22T02:31:04.696Z,100028.03
2023-03-22T02:33:56.991Z,100023.00
2023-03-22T02:36:42.636Z,100022.28
2023-03-22T02:39:25.422Z,100021.44
2023-03-22T02:42:13.597Z,100016.25
2023-03-22T02:44:44.100Z,100015.34
2023-03-22T02:47:21.612Z,100016.09
2023-03-22T02:49:55.407Z,100010.84
2023-03-22T02:52:27.895Z,100007.47
2023-03-22T02:55:04.223Z,100005.72
2023-03-22T02:57:37.589Z,100012.88
2023-03-22T03:00:08.935Z,100015.50
2023-03-22T03:02:38.183Z,100021.66
2023-03-22T03:05:07.753Z,100019.25
2023-03-22T03:07:36.352Z,100021.09
2023-03-22T03:10:07.581Z,100013.50
2023-03-22T03:12:35.505Z,100012.72
2023-03-22T03:15:03.634Z,100004.03
2023-03-22T03:17:41.358Z,100008.31
2023-03-22T03:20:22.031Z,99998.00
2023-03-22T03:22:57.894Z,100001.44
2023-03-22T03:25:32.623Z,99997.03
2023-03-22T03:28:06.485Z,100001.09
2023-03-22T03:30:39.070Z,100002.09
2023-03-22T03:33:10.659Z,99998.41
2023-03-22T03:35:40.873Z,100003.44
2023-03-22T03:38:14.841Z,100006.97
2023-03-22T03:40:46.642Z,100012.09
2023-03-22T03:43:15.591Z,100013.72
2023-03-22T03:45:43.762Z,100016.34
2023-03-22T03:48:14.930Z,100009.31
2023-03-22T03:50:43.191Z,100009.88
2023-03-22T03:53:12.705Z,100010.94
2023-03-22T03:55:40.684Z,100011.78
2023-03-22T03:58:10.079Z,100014.22
2023-03-22T04:00:38.640Z,100004.53
2023-03-22T04:03:25.832Z,100009.03
2023-03-22T04:06:29.203Z,100004.38
2023-03-22T04:09:06.596Z,100013.88
2023-03-22T04:11:42.274Z,100011.28
2023-03-22T04:14:11.575Z,100010.19
2023-03-22T04:16:39.770Z,100025.22
2023-03-22T04:19:11.000Z,100017.53
2023-03-22T04:21:39.117Z,100008.88
2023-03-22T04:24:08.277Z,100005.41
2023-03-22T04:26:39.681Z,100004.50
2023-03-22T04:29:18.794Z,100011.28
2023-03-22T04:31:53.082Z,100009.91
2023-03-22T04:34:40.450Z,100006.13
2023-03-22T04:37:17.027Z,100006.50
2023-03-22T04:39:59.940Z,99992.75
2023-03-22T04:42:44.862Z,100000.41
2023-03-22T04:45:25.109Z,100003.81
2023-03-22T04:47:57.976Z,99995.06
2023-03-22T04:50:28.265Z,100002.84
2023-03-22T04:53:00.717Z,99993.31
2023-03-22T04:55:30.067Z,99990.03
2023-03-22T04:57:57.962Z,99977.06
2023-03-22T05:00:30.466Z,99970.84
2023-03-22T05:03:00.002Z,99981.25
2023-03-22T05:05:34.548Z,99983.69
2023-03-22T05:08:04.055Z,99985.31
2023-03-22T05:10:32.119Z,99973.31
2023-03-22T05:13:00.008Z,99980.34
2023-03-22T05:15:33.885Z,99976.91
2023-03-22T05:18:04.378Z,99981.31
2023-03-22T05:20:32.596Z,99963.94
2023-03-22T05:23:21.194Z,99970.72
2023-03-22T05:25:53.941Z,99975.16
2023-03-22T05:28:23.428Z,99979.19
2023-03-22T05:31:15.566Z,99975.13
2023-03-22T05:33:50.519Z,99977.72
2023-03-22T05:36:22.918Z,99980.84
2023-03-22T05:39:08.987Z,99989.47
2023-03-22T05:41:37.134Z,99993.91
2023-03-22T05:44:06.228Z,99991.13
2023-03-22T05:46:41.121Z,99993.47
2023-03-22T05:49:27.817Z,100007.47
2023-03-22T05:51:56.007Z,99997.81
2023-03-22T05:54:26.573Z,100002.81
2023-03-22T05:56:55.767Z,99996.78
2023-03-22T05:59:24.276Z,99998.53
2023-03-22T06:01:53.610Z,99995.91
2023-03-22T06:04:24.498Z,100002.75
2023-03-22T06:07:04.100Z,100000.09
2023-03-22T06:09:49.544Z,100000.81
2023-03-22T06:12:24.802Z,100005.94
2023-03-22T06:15:06.887Z,100005.41
2023-03-22T06:17:39.016Z,100008.59
2023-03-22T06:20:11.980Z,100009.44
2023-03-22T06:22:43.460Z,100019.22
2023-03-22T06:25:12.033Z,100035.81
2023-03-22T06:27:46.633Z,100035.66
2023-03-22T06:30:15.011Z,100042.66
2023-03-22T06:33:05.226Z,100046.81
2023-03-22T06:35:36.963Z,100052.00
2023-03-22T06:38:06.368Z,100048.91
2023-03-22T06:40:35.799Z,100063.75
2023-03-22T06:43:06.921Z,100060.94
2023-03-22T06:45:36.618Z,100065.41
2023-03-22T06:48:07.840Z,100070.25
2023-03-22T06:50:48.563Z,100082.06
2023-03-22T06:53:24.578Z,100091.28
2023-03-22T06:55:55.233Z,100095.50
2023-03-22T06:58:24.986Z,100095.22
2023-03-22T07:00:52.902Z,100106.88
2023-03-22T07:03:25.389Z,100129.53
2023-03-22T07:06:01.492Z,100136.78
2023-03-22T07:08:31.965Z,100141.88
2023-03-22T07:10:59.966Z,100155.47
2023-03-22T07:13:28.130Z,100160.63
2023-03-22T07:16:02.013Z,100159.75
2023-03-22T07:18:51.554Z,100172.59
2023-03-22T07:21:19.594Z,100177.66
2023-03-22T07:23:52.376Z,100193.84
2023-03-22T07:26:22.364Z,100202.25
2023-03-22T07:28:51.287Z,100192.97
2023-03-22T07:31:21.565Z,100210.53
2023-03-22T07:34:03.167Z,100216.06
2023-03-22T07:36:38.561Z,100222.94
2023-03-22T07:39:10.061Z,100225.50
2023-03-22T07:41:42.855Z,100221.25
2023-03-22T07:44:47.451Z,100222.81
2023-03-22T07:47:37.735Z,100233.91
2023-03-22T07:50:21.739Z,100236.38
2023-03-22T07:52:54.790Z,100236.56
2023-03-22T07:55:22.699Z,100240.66
2023-03-22T07:57:51.238Z,100252.09
2023-03-22T08:00:21.233Z,100264.06
2023-03-22T08:03:02.946Z,100249.88
2023-03-22T08:05:52.777Z,100265.53
2023-03-22T08:08:21.787Z,100273.84
2023-03-22T08:10:51.293Z,100264.34
2023-03-22T08:13:19.351Z,100277.31
2023-03-22T08:15:47.233Z,100284.47
2023-03-22T08:18:15.583Z,100308.06
2023-03-22T08:20:45.730Z,100309.56
2023-03-22T08:23:28.776Z,100295.94
2023-03-22T08:26:28.511Z,100303.16
2023-03-22T08:28:59.794Z,100308.41
2023-03-22T08:31:31.678Z,100308.88
2023-03-22T08:34:00.166Z,100304.53
2023-03-22T08:36:29.107Z,100307.63
2023-03-22T08:39:02.477Z,100315.31
2023-03-22T08:41:44.054Z,100307.63
2023-03-22T08:44:12.002Z,100310.97
2023-03-22T08:46:41.060Z,100303.88
2023-03-22T08:49:10.514Z,100305.84
2023-03-22T08:51:47.465Z,100298.31
2023-03-22T08:54:20.791Z,100306.44
2023-03-22T08:56:54.598Z,100300.03
2023-03-22T08:59:41.699Z,100300.03
2023-03-22T09:02:24.200Z,100292.88
2023-03-22T09:04:53.750Z,100297.69
2023-03-22T09:07:22.671Z,100288.19
2023-03-22T09:10:02.420Z,100293.75
2023-03-22T09:12:30.851Z,100292.91
2023-03-22T09:14:58.811Z,100292.78
2023-03-22T09:17:29.049Z,100301.41
2023-03-22T09:20:11.135Z,100295.91
2023-03-22T09:22:41.930Z,100292.44
2023-03-22T09:25:13.322Z,100293.59
2023-03-22T09:27:43.916Z,100287.28
2023-03-22T09:30:15.010Z,100291.03
2023-03-22T09:32:43.187Z,100288.00
2023-03-22T09:35:13.493Z,100281.84
2023-03-22T09:37:56.316Z,100284.63
2023-03-22T09:40:28.790Z,100272.06
2023-03-22T09:42:57.958Z,100273.63
2023-03-22T09:45:32.974Z,100270.34
2023-03-22T09:48:01.148Z,100274.38
2023-03-22T09:50:31.720Z,100273.28
2023-03-22T09:53:00.060Z,100249.81
2023-03-22T09:55:33.676Z,100253.09
2023-03-22T09:58:06.658Z,100260.72
2023-03-22T10:00:40.015Z,100252.88
2023-03-22T10:03:17.402Z,100245.84
2023-03-22T10:05:47.427Z,100252.56
2023-03-22T10:08:26.956Z,100253.41
2023-03-22T10:10:56.191Z,100261.06
2023-03-22T10:13:28.820Z,100257.84
2023-03-22T10:15:59.625Z,100248.63
2023-03-22T10:18:30.015Z,100258.44
2023-03-22T10:21:01.233Z,100257.97
2023-03-22T10:23:32.107Z,100243.81
2023-03-22T10:26:02.177Z,100240.81
2023-03-22T10:28:32.801Z,100241.94
2023-03-22T10:31:00.781Z,100243.47
2023-03-22T10:33:38.993Z,100244.03
2023-03-22T10:36:11.708Z,100249.69
2023-03-22T10:38:46.596Z,100254.31
2023-03-22T10:41:18.586Z,100249.28
2023-03-22T10:43:49.776Z,100243.69
2023-03-22T10:46:21.171Z,100256.66
2023-03-22T10:48:51.191Z,100253.91
2023-03-22T10:51:25.928Z,100251.94
2023-03-22T10:53:56.186Z,100248.72
2023-03-22T10:56:25.683Z,100244.25
2023-03-22T10:58:53.865Z,100244.50
2023-03-22T11:01:27.904Z,100248.31
2023-03-22T11:03:58.337Z,100254.34
2023-03-22T11:06:29.861Z,100245.59
2023-03-22T11:09:00.332Z,100251.25
2023-03-22T11:11:31.078Z,100252.94
2023-03-22T11:14:05.640Z,100247.50
2023-03-22T11:16:42.367Z,100256.38
2023-03-22T11:19:15.460Z,100263.59
2023-03-22T11:21:44.358Z,100263.34
2023-03-22T11:24:14.247Z,100255.41
2023-03-22T11:26:45.020Z,100262.56
2023-03-22T11:29:15.631Z,100261.38
2023-03-22T11:31:58.371Z,100238.25
2023-03-22T11:34:28.652Z,100259.25
2023-03-22T11:36:57.871Z,100249.88
2023-03-22T11:39:28.362Z,100247.97
2023-03-22T11:42:01.386Z,100247.53
2023-03-22T11:44:34.008Z,100234.28
2023-03-22T11:47:03.364Z,100238.47
2023-03-22T11:49:39.295Z,100234.94
2023-03-22T11:52:12.828Z,100231.66
2023-03-22T11:54:42.498Z,100229.03
2023-03-22T11:57:17.040Z,100217.69
2023-03-22T11:59:50.098Z,100220.38
2023-03-22T12:02:22.100Z,100221.47
2023-03-22T12:04:51.763Z,100216.63
2023-03-22T12:07:24.485Z,100227.25
2023-03-22T12:09:58.967Z,100224.09
2023-03-22T12:12:31.839Z,100227.03
2023-03-22T12:15:03.728Z,100234.63
2023-03-22T12:17:36.745Z,100223.00
2023-03-22T12:20:11.873Z,100236.47
2023-03-22T12:22:43.353Z,100237.06
2023-03-22T12:25:14.941Z,100237.47
2023-03-22T12:27:47.356Z,100246.16
2023-03-22T12:30:18.144Z,100239.63
2023-03-22T12:32:49.067Z,100236.31
2023-03-22T12:35:22.981Z,100249.63
2023-03-22T12:37:53.488Z,100234.47
2023-03-22T12:40:24.825Z,100237.84
2023-03-22T12:43:00.617Z,100246.25
2023-03-22T12:45:31.308Z,100229.34
2023-03-22T12:48:03.109Z,100247.88
2023-03-22T12:50:35.464Z,100235.53
2023-03-22T12:53:04.553Z,100237.09
2023-03-22T12:55:34.264Z,100235.84
2023-03-22T12:58:06.614Z,100247.16
2023-03-22T13:00:37.190Z,100242.25
2023-03-22T13:03:10.572Z,100241.28
2023-03-22T13:05:38.851Z,100233.78
2023-03-22T13:08:06.977Z,100247.66
2023-03-22T13:11:05.978Z,100241.16
2023-03-22T13:13:42.543Z,100242.00
2023-03-22T13:16:25.092Z,100233.50
2023-03-22T13:19:02.280Z,100237.31
2023-03-22T13:21:31.642Z,100238.84
2023-03-22T13:24:02.066Z,100241.09
2023-03-22T13:26:35.154Z,100230.94
2023-03-22T13:29:11.931Z,100246.03
2023-03-22T13:31:44.071Z,100233.56
2023-03-22T13:34:16.056Z,100240.63
2023-03-22T13:36:51.822Z,100255.03
2023-03-22T13:39:22.908Z,100239.63
2023-03-22T13:42:02.460Z,100244.03
2023-03-22T13:44:38.224Z,100239.50
2023-03-22T13:47:10.172Z,100261.78
2023-03-22T13:49:48.062Z,100239.47
2023-03-22T13:52:28.781Z,100262.16
2023-03-22T13:54:58.890Z,100242.50
2023-03-22T13:57:47.690Z,100237.59
2023-03-22T14:00:35.180Z,100236.47
2023-03-22T14:03:05.335Z,100241.31
2023-03-22T14:05:36.655Z,100230.19
2023-03-22T14:08:05.381Z,100235.72
2023-03-22T14:10:38.802Z,100226.41
2023-03-22T14:13:15.878Z,100219.47
2023-03-22T14:15:48.705Z,100220.16
2023-03-22T14:18:17.393Z,100225.53
2023-03-22T14:20:45.692Z,100230.53
